createdAt,value
2023-03-25T00:02:17.793Z,97981.95
2023-03-25T00:07:26.041Z,97988.55
2023-03-25T00:12:33.765Z,97988.72
2023-03-25T00:17:43.171Z,97990.50
2023-03-25T00:22:50.568Z,97990.52
2023-03-25T00:27:58.039Z,97982.41
2023-03-25T00:33:05.743Z,97973.85
2023-03-25T00:38:13.187Z,97966.10
2023-03-25T00:43:20.608Z,97960.41
2023-03-25T00:48:29.230Z,97955.06
2023-03-25T00:53:37.654Z,97956.25
2023-03-25T00:58:45.062Z,97956.21
2023-03-25T01:03:58.139Z,97961.75
2023-03-25T01:09:08.505Z,97958.64
2023-03-25T01:14:17.418Z,97962.05
2023-03-25T01:19:26.174Z,97951.78
2023-03-25T01:24:35.048Z,97947.43
2023-03-25T01:29:44.347Z,97944.13
2023-03-25T01:34:51.880Z,97952.55
2023-03-25T01:39:59.563Z,97947.91
2023-03-25T01:45:27.788Z,97949.15
2023-03-25T01:50:37.946Z,97947.55
2023-03-25T01:55:46.555Z,97940.73
2023-03-25T02:01:00.004Z,97933.54
2023-03-25T02:06:11.448Z,97934.49
2023-03-25T02:11:19.022Z,97932.06
2023-03-25T02:16:34.134Z,97928.79
2023-03-25T02:22:21.017Z,97924.27
2023-03-25T02:27:48.248Z,97931.45
2023-03-25T02:33:27.450Z,97937.02
2023-03-25T02:38:41.974Z,97937.22
2023-03-25T02:43:59.147Z,97938.32
2023-03-25T02:49:11.004Z,97943.40
2023-03-25T02:54:21.610Z,97938.19
2023-03-25T02:59:33.420Z,97948.48
2023-03-25T03:04:53.528Z,97954.19
2023-03-25T03:10:13.778Z,97950.91
2023-03-25T03:15:29.518Z,97953.85
2023-03-25T03:20:42.326Z,97955.24
2023-03-25T03:25:53.926Z,97961.85
2023-03-25T03:31:07.141Z,97964.44
2023-03-25T03:36:19.069Z,97969.54
2023-03-25T03:41:30.040Z,97976.05
2023-03-25T03:46:42.369Z,97981.36
2023-03-25T03:51:54.590Z,97981.15
2023-03-25T03:57:08.037Z,97987.75
2023-03-25T04:02:27.542Z,97998.70
2023-03-25T04:07:41.968Z,98008.95
2023-03-25T04:12:53.006Z,98015.96
2023-03-25T04:18:01.941Z,98019.14
2023-03-25T04:23:10.871Z,98028.33
2023-03-25T04:28:19.063Z,98035.52
2023-03-25T04:33:26.928Z,98036.80
2023-03-25T04:38:34.401Z,98038.77
2023-03-25T04:43:42.007Z,98039.50
2023-03-25T04:48:50.016Z,98040.34
2023-03-25T04:53:57.550Z,98043.19
2023-03-25T04:59:05.030Z,98046.30
2023-03-25T05:04:14.555Z,98058.39
2023-03-25T05:09:24.553Z,98060.49
2023-03-25T05:14:32.270Z,98064.75
2023-03-25T05:19:44.103Z,98069.70
2023-03-25T05:24:53.709Z,98077.17
2023-03-25T05:30:01.332Z,98080.13
2023-03-25T05:35:10.790Z,98076.70
2023-03-25T05:40:18.432Z,98077.45
2023-03-25T05:45:26.240Z,98079.15
2023-03-25T05:50:34.021Z,98082.08
2023-03-25T05:55:42.421Z,98090.51
2023-03-25T06:00:50.701Z,98091.94
2023-03-25T06:05:59.716Z,98094.20
2023-03-25T06:11:09.494Z,98089.45
2023-03-25T06:16:18.727Z,98083.77
2023-03-25T06:21:27.166Z,98090.09
2023-03-25T06:26:34.598Z,98100.74
2023-03-25T06:31:43.160Z,98111.13
2023-03-25T06:36:50.510Z,98109.16
2023-03-25T06:41:58.110Z,98095.21
2023-03-25T06:47:06.868Z,98105.44
2023-03-25T06:52:14.472Z,98116.52
2023-03-25T06:57:21.964Z,98128.73
2023-03-25T07:02:29.516Z,98131.94
2023-03-25T07:07:36.893Z,98133.10
2023-03-25T07:12:44.230Z,98126.27
2023-03-25T07:17:51.476Z,98124.48
2023-03-25T07:22:59.107Z,98126.80
2023-03-25T07:28:07.162Z,98127.89
2023-03-25T07:33:14.822Z,98123.60
2023-03-25T07:38:22.845Z,98115.08
2023-03-25T07:43:30.690Z,98117.85
2023-03-25T07:48:38.334Z,98116.23
2023-03-25T07:53:46.738Z,98118.48
2023-03-25T07:58:54.446Z,98103.34
2023-03-25T08:04:02.002Z,98098.69
2023-03-25T08:09:09.969Z,98102.38
2023-03-25T08:14:18.046Z,98105.82
2023-03-25T08:19:28.714Z,98115.30
2023-03-25T08:24:35.953Z,98108.70
2023-03-25T08:29:43.755Z,98108.65
2023-03-25T08:34:51.735Z,98107.25
2023-03-25T08:39:59.173Z,98112.22
2023-03-25T08:45:08.422Z,98113.35
2023-03-25T08:50:16.245Z,98116.60
2023-03-25T08:55:24.784Z,98114.38
2023-03-25T09:00:33.348Z,98102.56
2023-03-25T09:05:42.376Z,98101.02
2023-03-25T09:10:49.974Z,98104.42
2023-03-25T09:15:59.248Z,98098.57
2023-03-25T09:21:08.087Z,98089.42
2023-03-25T09:26:15.607Z,98083.11
2023-03-25T09:31:23.316Z,98074.21
2023-03-25T09:36:32.421Z,98070.36
2023-03-25T09:41:59.276Z,98063.96
2023-03-25T09:47:10.968Z,98063.15
2023-03-25T09:52:27.949Z,98057.82
2023-03-25T09:57:42.512Z,98042.04
2023-03-25T10:02:56.311Z,98035.70
2023-03-25T10:08:15.061Z,98031.85
2023-03-25T10:13:29.060Z,98026.42
2023-03-25T10:18:54.528Z,98026.95
2023-03-25T10:24:14.505Z,98024.59
2023-03-25T10:29:27.626Z,98017.62
2023-03-25T10:34:40.928Z,98020.80
2023-03-25T10:39:50.203Z,98014.42
2023-03-25T10:44:59.559Z,97999.70
2023-03-25T10:50:09.533Z,97996.45
2023-03-25T10:55:26.650Z,97990.80
2023-03-25T11:00:35.090Z,97994.69
2023-03-25T11:05:42.607Z,97970.52
2023-03-25T11:10:58.055Z,97967.73
2023-03-25T11:16:08.536Z,97959.34
2023-03-25T11:21:16.939Z,97956.02
2023-03-25T11:26:27.171Z,97950.17
2023-03-25T11:31:39.452Z,97941.27
2023-03-25T11:36:55.410Z,97934.65
2023-03-25T11:42:11.520Z,97926.23
2023-03-25T11:47:22.815Z,97926.88
2023-03-25T11:52:38.303Z,97916.11
2023-03-25T11:57:46.513Z,97931.23
2023-03-25T12:03:02.601Z,97956.96
2023-03-25T12:08:17.482Z,97969.44
2023-03-25T12:13:45.701Z,97970.75
2023-03-25T12:19:07.308Z,97968.59
2023-03-25T12:24:30.535Z,97962.85
2023-03-25T12:29:48.868Z,97956.27
2023-03-25T12:35:08.764Z,97950.13
2023-03-25T12:40:38.255Z,97943.85
2023-03-25T12:45:59.548Z,97952.70
2023-03-25T12:51:15.135Z,97953.66
2023-03-25T12:56:43.282Z,97963.95
2023-03-25T13:01:59.862Z,97971.32
2023-03-25T13:07:11.624Z,97973.67
2023-03-25T13:12:32.553Z,97965.13
2023-03-25T13:17:47.979Z,97952.04
2023-03-25T13:23:02.522Z,97958.85
2023-03-25T13:28:15.470Z,97966.14
2023-03-25T13:34:06.893Z,97965.44
2023-03-25T13:39:20.040Z,97950.29
2023-03-25T13:44:33.788Z,97943.59
2023-03-25T13:49:47.861Z,97943.13
2023-03-25T13:55:01.889Z,97940.57
2023-03-25T14:00:55.475Z,97942.42
2023-03-25T14:06:47.746Z,97942.84
2023-03-25T14:12:04.263Z,97943.30
2023-03-25T14:17:14.544Z,97938.08
2023-03-25T14:22:27.923Z,97940.15
2023-03-25T14:27:38.159Z,97935.82
2023-03-25T14:32:46.815Z,97929.78
2023-03-25T14:37:54.885Z,97932.59
2023-03-25T14:43:02.844Z,97928.89
2023-03-25T14:48:27.943Z,97934.16
2023-03-25T14:53:36.572Z,97927.23
2023-03-25T14:58:46.302Z,97927.42
2023-03-25T15:04:13.647Z,97927.79
2023-03-25T15:09:23.563Z,97928.35
2023-03-25T15:14:37.473Z,97923.48
2023-03-25T15:20:28.245Z,97926.88
2023-03-25T15:25:38.309Z,97925.32
2023-03-25T15:31:14.721Z,97928.74
2023-03-25T15:36:59.170Z,97933.59
2023-03-25T15:42:22.847Z,97941.66
2023-03-25T15:47:48.133Z,97951.37
2023-03-25T15:53:15.058Z,97956.23
2023-03-25T15:58:32.173Z,97955.85
2023-03-25T16:03:39.468Z,97958.02
2023-03-25T16:08:50.883Z,97968.85
2023-03-25T16:14:15.143Z,97973.91
2023-03-25T16:19:28.220Z,97971.41
2023-03-25T16:24:35.889Z,97974.27
2023-03-25T16:29:49.245Z,97971.63
2023-03-25T16:34:57.959Z,97974.23
2023-03-25T16:40:11.699Z,97984.21
2023-03-25T16:45:20.787Z,97982.23
2023-03-25T16:50:28.618Z,97987.31
2023-03-25T16:55:49.225Z,97992.95
2023-03-25T17:00:57.741Z,97994.39
2023-03-25T17:06:10.352Z,98000.48
2023-03-25T17:11:18.416Z,98005.64
2023-03-25T17:16:28.437Z,98011.48
2023-03-25T17:21:38.905Z,98011.43
2023-03-25T17:27:05.632Z,98011.67
2023-03-25T17:32:20.619Z,98017.88
2023-03-25T17:37:29.508Z,98034.40
2023-03-25T17:42:38.807Z,98039.19
2023-03-25T17:47:46.795Z,98045.23
2023-03-25T17:52:55.283Z,98041.92
2023-03-25T17:58:02.631Z,98040.61
2023-03-25T18:03:16.819Z,98041.05
2023-03-25T18:08:26.468Z,98032.58
2023-03-25T18:13:33.690Z,98032.36
2023-03-25T18:18:41.585Z,98037.16
2023-03-25T18:23:49.710Z,98032.14
2023-03-25T18:28:59.252Z,98033.25
2023-03-25T18:34:07.370Z,98036.42
2023-03-25T18:39:19.696Z,98032.26
2023-03-25T18:44:31.117Z,98021.62
2023-03-25T18:49:39.528Z,98033.02
2023-03-25T18:54:47.357Z,98035.92
2023-03-25T18:59:54.805Z,98033.71
2023-03-25T19:05:02.650Z,98044.95
2023-03-25T19:10:14.379Z,98035.34
2023-03-25T19:15:25.288Z,98036.56
2023-03-25T19:20:36.468Z,98039.98
2023-03-25T19:25:45.420Z,98040.97
2023-03-25T19:30:55.148Z,98041.95
2023-03-25T19:36:05.104Z,98048.35
2023-03-25T19:41:14.036Z,98052.42
2023-03-25T19:46:21.466Z,98052.21
2023-03-25T19:51:29.145Z,98049.36
2023-03-25T19:56:37.263Z,98051.63
2023-03-25T20:01:46.142Z,98048.31
2023-03-25T20:06:53.792Z,98050.95
2023-03-25T20:12:01.794Z,98054.98
2023-03-25T20:17:09.456Z,98059.55
2023-03-25T20:22:25.019Z,98062.73
2023-03-25T20:27:33.041Z,98054.65
2023-03-25T20:32:42.652Z,98051.14
2023-03-25T20:37:52.369Z,98047.39
2023-03-25T20:43:00.284Z,98046.25
2023-03-25T20:48:08.992Z,98046.15
2023-03-25T20:53:17.271Z,98049.92
2023-03-25T20:58:25.285Z,98053.56
2023-03-25T21:03:33.586Z,98055.80
2023-03-25T21:08:41.368Z,98059.67
2023-03-25T21:13:49.366Z,98057.50
2023-03-25T21:19:01.939Z,98062.34
2023-03-25T21:24:11.563Z,98065.55
2023-03-25T21:29:19.580Z,98065.26
2023-03-25T21:34:27.022Z,98063.88
2023-03-25T21:39:35.933Z,98064.98
2023-03-25T21:44:43.508Z,98069.29
2023-03-25T21:49:51.548Z,98068.77
2023-03-25T21:54:59.610Z,98078.80
2023-03-25T22:00:10.576Z,98074.16
2023-03-25T22:05:19.553Z,98076.37
2023-03-25T22:10:27.580Z,98081.94
2023-03-25T22:15:36.520Z,98086.56
2023-03-25T22:20:44.580Z,98097.70
2023-03-25T22:25:53.142Z,98111.36
2023-03-25T22:31:02.380Z,98112.61
2023-03-25T22:36:13.132Z,98123.23
2023-03-25T22:41:21.652Z,98123.25
2023-03-25T22:46:29.361Z,98126.49
2023-03-25T22:51:37.289Z,98127.17
2023-03-25T22:56:45.920Z,98131.51
2023-03-25T23:01:53.679Z,98120.84
2023-03-25T23:07:08.349Z,98126.19
2023-03-25T23:12:21.805Z,98139.27
2023-03-25T23:17:30.225Z,98138.75
2023-03-25T23:22:38.023Z,98131.65
2023-03-25T23:27:46.532Z,98129.52
2023-03-25T23:32:54.498Z,98124.73
2023-03-25T23:38:02.185Z,98127.64
2023-03-25T23:43:10.317Z,98125.92
2023-03-25T23:48:17.968Z,98130.39
2023-03-25T23:53:25.804Z,98129.95
2023-03-25T23:58:34.431Z,98134.90
